sensor_id;sensor_type;location;lat;lon;timestamp;pressure;altitude;pressure_sealevel;temperature;humidity
60852;BME280;48553;50.766;2.900;2023-04-04T00:02:32;102101.09;;;6.75;66.36
60852;BME280;48553;50.766;2.900;2023-04-04T00:05:33;102092.09;;;6.74;66.33
60852;BME280;48553;50.766;2.900;2023-04-04T00:08:35;102102.75;;;6.71;66.53
60852;BME280;48553;50.766;2.900;2023-04-04T00:11:35;102102.44;;;6.72;66.21
60852;BME280;48553;50.766;2.900;2023-04-04T00:14:36;102113.63;;;6.71;66.35
60852;BME280;48553;50.766;2.900;2023-04-04T00:17:36;102107.09;;;6.66;66.42
60852;BME280;48553;50.766;2.900;2023-04-04T00:20:36;102102.75;;;6.65;66.13
60852;BME280;48553;50.766;2.900;2023-04-04T00:23:37;102101.94;;;6.60;66.48
60852;BME280;48553;50.766;2.900;2023-04-04T00:26:37;102097.28;;;6.60;66.59
60852;BME280;48553;50.766;2.900;2023-04-04T00:29:38;102097.06;;;6.57;66.40
60852;BME280;48553;50.766;2.900;2023-04-04T00:32:38;102082.59;;;6.51;66.71
60852;BME280;48553;50.766;2.900;2023-04-04T00:35:39;102071.16;;;6.49;66.79
60852;BME280;48553;50.766;2.900;2023-04-04T00:38:39;102079.88;;;6.51;66.47
60852;BME280;48553;50.766;2.900;2023-04-04T00:41:40;102076.06;;;6.47;66.94
60852;BME280;48553;50.766;2.900;2023-04-04T00:44:40;102075.81;;;6.43;66.98
60852;BME280;48553;50.766;2.900;2023-04-04T00:47:42;102076.09;;;6.42;66.68
60852;BME280;48553;50.766;2.900;2023-04-04T00:50:43;102072.00;;;6.39;66.90
60852;BME280;48553;50.766;2.900;2023-04-04T00:53:45;102072.81;;;6.40;66.76
60852;BME280;48553;50.766;2.900;2023-04-04T00:56:46;102076.09;;;6.37;66.98
60852;BME280;48553;50.766;2.900;2023-04-04T00:59:47;102069.31;;;6.34;66.92
60852;BME280;48553;50.766;2.900;2023-04-04T01:02:47;102073.41;;;6.32;66.94
60852;BME280;48553;50.766;2.900;2023-04-04T01:05:48;102070.13;;;6.30;67.01
60852;BME280;48553;50.766;2.900;2023-04-04T01:08:50;102081.03;;;6.30;67.13
60852;BME280;48553;50.766;2.900;2023-04-04T01:11:52;102082.91;;;6.24;67.13
60852;BME280;48553;50.766;2.900;2023-04-04T01:14:54;102082.09;;;6.23;67.27
60852;BME280;48553;50.766;2.900;2023-04-04T01:17:57;102089.72;;;6.21;66.98
60852;BME280;48553;50.766;2.900;2023-04-04T01:21:01;102085.66;;;6.19;67.19
60852;BME280;48553;50.766;2.900;2023-04-04T01:24:03;102093.25;;;6.17;67.33
60852;BME280;48553;50.766;2.900;2023-04-04T01:27:03;102095.72;;;6.13;67.41
60852;BME280;48553;50.766;2.900;2023-04-04T01:30:05;102094.91;;;6.13;67.40
60852;BME280;48553;50.766;2.900;2023-04-04T01:36:22;102097.91;;;6.11;67.06
60852;BME280;48553;50.766;2.900;2023-04-04T01:39:35;102097.63;;;6.07;67.24
60852;BME280;48553;50.766;2.900;2023-04-04T01:42:39;102099.81;;;6.00;67.21
60852;BME280;48553;50.766;2.900;2023-04-04T01:45:41;102105.78;;;5.97;66.99
60852;BME280;48553;50.766;2.900;2023-04-04T01:48:42;102103.59;;;5.94;67.29
60852;BME280;48553;50.766;2.900;2023-04-04T01:51:43;102109.03;;;5.94;67.15
60852;BME280;48553;50.766;2.900;2023-04-04T01:54:44;102105.19;;;5.90;67.15
60852;BME280;48553;50.766;2.900;2023-04-04T01:57:44;102118.25;;;5.88;67.06
60852;BME280;48553;50.766;2.900;2023-04-04T02:00:45;102111.44;;;5.85;67.21
60852;BME280;48553;50.766;2.900;2023-04-04T02:03:45;102112.53;;;5.84;67.03
60852;BME280;48553;50.766;2.900;2023-04-04T02:06:46;102106.28;;;5.84;66.93
60852;BME280;48553;50.766;2.900;2023-04-04T02:09:46;102108.97;;;5.79;67.08
60852;BME280;48553;50.766;2.900;2023-04-04T02:12:47;102098.09;;;5.79;67.08
60852;BME280;48553;50.766;2.900;2023-04-04T02:15:47;102099.75;;;5.75;66.93
60852;BME280;48553;50.766;2.900;2023-04-04T02:18:48;102101.63;;;5.74;67.31
60852;BME280;48553;50.766;2.900;2023-04-04T02:21:49;102095.13;;;5.70;67.11
60852;BME280;48553;50.766;2.900;2023-04-04T02:24:49;102096.19;;;5.69;67.38
60852;BME280;48553;50.766;2.900;2023-04-04T02:27:50;102083.13;;;5.66;67.38
60852;BME280;48553;50.766;2.900;2023-04-04T02:30:50;102088.28;;;5.62;67.44
60852;BME280;48553;50.766;2.900;2023-04-04T02:33:51;102088.03;;;5.59;67.45
60852;BME280;48553;50.766;2.900;2023-04-04T02:36:51;102085.31;;;5.59;67.40
60852;BME280;48553;50.766;2.900;2023-04-04T02:39:52;102084.75;;;5.57;67.49
60852;BME280;48553;50.766;2.900;2023-04-04T02:42:52;102075.25;;;5.54;67.58
60852;BME280;48553;50.766;2.900;2023-04-04T02:45:53;102074.69;;;5.52;67.60
60852;BME280;48553;50.766;2.900;2023-04-04T02:48:53;102078.47;;;5.51;67.35
60852;BME280;48553;50.766;2.900;2023-04-04T02:51:54;102070.59;;;5.50;67.60
60852;BME280;48553;50.766;2.900;2023-04-04T02:54:54;102074.41;;;5.49;67.58
60852;BME280;48553;50.766;2.900;2023-04-04T02:57:54;102082.81;;;5.42;67.70
60852;BME280;48553;50.766;2.900;2023-04-04T03:00:55;102080.91;;;5.42;67.74
60852;BME280;48553;50.766;2.900;2023-04-04T03:03:55;102085.78;;;5.40;67.82
60852;BME280;48553;50.766;2.900;2023-04-04T03:06:56;102087.41;;;5.36;67.56
60852;BME280;48553;50.766;2.900;2023-04-04T03:09:57;102078.44;;;5.36;67.97
60852;BME280;48553;50.766;2.900;2023-04-04T03:12:57;102084.97;;;5.35;67.76
60852;BME280;48553;50.766;2.900;2023-04-04T03:16:03;102088.22;;;5.32;67.75
60852;BME280;48553;50.766;2.900;2023-04-04T03:19:05;102081.69;;;5.28;68.02
60852;BME280;48553;50.766;2.900;2023-04-04T03:22:06;102074.59;;;5.27;67.87
60852;BME280;48553;50.766;2.900;2023-04-04T03:25:07;102072.16;;;5.25;67.90
60852;BME280;48553;50.766;2.900;2023-04-04T03:28:09;102071.34;;;5.25;67.97
60852;BME280;48553;50.766;2.900;2023-04-04T03:31:09;102074.84;;;5.20;68.06
60852;BME280;48553;50.766;2.900;2023-04-04T03:34:10;102073.22;;;5.19;68.17
60852;BME280;48553;50.766;2.900;2023-04-04T03:37:10;102070.75;;;5.17;68.17
60852;BME280;48553;50.766;2.900;2023-04-04T03:40:11;102066.13;;;5.13;68.10
60852;BME280;48553;50.766;2.900;2023-04-04T03:43:12;102069.13;;;5.11;68.17
60852;BME280;48553;50.766;2.900;2023-04-04T03:46:13;102067.22;;;5.12;68.17
60852;BME280;48553;50.766;2.900;2023-04-04T03:49:13;102060.69;;;5.08;68.32
60852;BME280;48553;50.766;2.900;2023-04-04T03:52:13;102057.41;;;5.06;68.32
60852;BME280;48553;50.766;2.900;2023-04-04T03:55:14;102060.13;;;5.06;68.17
60852;BME280;48553;50.766;2.900;2023-04-04T03:58:14;102068.28;;;5.06;68.25
60852;BME280;48553;50.766;2.900;2023-04-04T04:01:15;102070.44;;;4.98;68.21
60852;BME280;48553;50.766;2.900;2023-04-04T04:04:15;102061.47;;;4.98;68.13
60852;BME280;48553;50.766;2.900;2023-04-04T04:07:16;102066.09;;;4.97;68.15
60852;BME280;48553;50.766;2.900;2023-04-04T04:10:16;102069.31;;;4.94;68.16
60852;BME280;48553;50.766;2.900;2023-04-04T04:13:17;102067.41;;;4.95;68.37
60852;BME280;48553;50.766;2.900;2023-04-04T04:16:17;102064.69;;;4.90;68.17
60852;BME280;48553;50.766;2.900;2023-04-04T04:19:18;102065.50;;;4.90;68.44
60852;BME280;48553;50.766;2.900;2023-04-04T04:22:18;102078.25;;;4.85;68.82
60852;BME280;48553;50.766;2.900;2023-04-04T04:25:19;102075.53;;;4.85;68.43
60852;BME280;48553;50.766;2.900;2023-04-04T04:28:20;102080.41;;;4.82;68.46
60852;BME280;48553;50.766;2.900;2023-04-04T04:31:20;102072.50;;;4.81;68.36
60852;BME280;48553;50.766;2.900;2023-04-04T04:34:21;102066.81;;;4.77;68.66
60852;BME280;48553;50.766;2.900;2023-04-04T04:37:21;102061.88;;;4.74;68.69
60852;BME280;48553;50.766;2.900;2023-04-04T04:40:22;102068.66;;;4.72;68.42
60852;BME280;48553;50.766;2.900;2023-04-04T04:43:23;102070.56;;;4.71;68.65
60852;BME280;48553;50.766;2.900;2023-04-04T04:46:23;102065.66;;;4.68;68.78
60852;BME280;48553;50.766;2.900;2023-04-04T04:49:24;102077.03;;;4.65;68.61
60852;BME280;48553;50.766;2.900;2023-04-04T04:52:24;102075.16;;;4.66;68.73
60852;BME280;48553;50.766;2.900;2023-04-04T04:55:25;102084.13;;;4.66;68.56
60852;BME280;48553;50.766;2.900;2023-04-04T04:58:26;102085.47;;;4.64;68.52
60852;BME280;48553;50.766;2.900;2023-04-04T05:01:26;102090.34;;;4.62;68.70
60852;BME280;48553;50.766;2.900;2023-04-04T05:04:26;102096.56;;;4.57;68.77
60852;BME280;48553;50.766;2.900;2023-04-04T05:07:27;102102.00;;;4.57;68.68
60852;BME280;48553;50.766;2.900;2023-04-04T05:10:28;102101.44;;;4.55;68.51
60852;BME280;48553;50.766;2.900;2023-04-04T05:13:29;102103.03;;;4.51;68.57
60852;BME280;48553;50.766;2.900;2023-04-04T05:16:30;102107.09;;;4.48;68.77
60852;BME280;48553;50.766;2.900;2023-04-04T05:19:30;102103.56;;;4.48;68.74
60852;BME280;48553;50.766;2.900;2023-04-04T05:22:30;102106.28;;;4.48;68.62
60852;BME280;48553;50.766;2.900;2023-04-04T05:25:31;102105.97;;;4.44;68.69
60852;BME280;48553;50.766;2.900;2023-04-04T05:28:32;102105.41;;;4.42;68.97
60852;BME280;48553;50.766;2.900;2023-04-04T05:31:33;102105.16;;;4.44;68.95
60852;BME280;48553;50.766;2.900;2023-04-04T05:34:33;102109.47;;;4.39;69.12
60852;BME280;48553;50.766;2.900;2023-04-04T05:37:37;102114.88;;;4.39;68.98
60852;BME280;48553;50.766;2.900;2023-04-04T05:40:38;102109.47;;;4.39;68.90
60852;BME280;48553;50.766;2.900;2023-04-04T05:43:38;102117.28;;;4.36;69.00
60852;BME280;48553;50.766;2.900;2023-04-04T05:46:39;102116.47;;;4.35;69.03
60852;BME280;48553;50.766;2.900;2023-04-04T05:49:39;102113.53;;;4.37;69.28
60852;BME280;48553;50.766;2.900;2023-04-04T05:52:40;102120.84;;;4.36;69.21
60852;BME280;48553;50.766;2.900;2023-04-04T05:55:40;102116.75;;;4.34;68.84
60852;BME280;48553;50.766;2.900;2023-04-04T05:58:40;102131.97;;;4.35;69.23
60852;BME280;48553;50.766;2.900;2023-04-04T06:01:42;102118.38;;;4.35;69.34
60852;BME280;48553;50.766;2.900;2023-04-04T06:04:42;102121.34;;;4.33;69.60
60852;BME280;48553;50.766;2.900;2023-04-04T06:07:44;102132.47;;;4.32;69.75
60852;BME280;48553;50.766;2.900;2023-04-04T06:10:44;102124.63;;;4.35;69.69
60852;BME280;48553;50.766;2.900;2023-04-04T06:13:45;102137.13;;;4.36;69.79
60852;BME280;48553;50.766;2.900;2023-04-04T06:16:45;102139.31;;;4.39;69.84
60852;BME280;48553;50.766;2.900;2023-04-04T06:19:46;102136.91;;;4.43;69.99
60852;BME280;48553;50.766;2.900;2023-04-04T06:22:46;102140.19;;;4.45;69.91
60852;BME280;48553;50.766;2.900;2023-04-04T06:25:47;102147.56;;;4.50;70.14
60852;BME280;48553;50.766;2.900;2023-04-04T06:28:48;102159.22;;;4.50;70.12
60852;BME280;48553;50.766;2.900;2023-04-04T06:31:49;102156.53;;;4.55;70.27
60852;BME280;48553;50.766;2.900;2023-04-04T06:34:49;102166.38;;;4.62;70.20
60852;BME280;48553;50.766;2.900;2023-04-04T06:37:55;102155.53;;;4.67;70.20
60852;BME280;48553;50.766;2.900;2023-04-04T06:40:56;102158.84;;;4.74;70.06
60852;BME280;48553;50.766;2.900;2023-04-04T06:43:57;102165.38;;;4.78;70.14
60852;BME280;48553;50.766;2.900;2023-04-04T06:46:57;102163.00;;;4.87;69.99
60852;BME280;48553;50.766;2.900;2023-04-04T06:49:58;102169.84;;;4.94;70.17
60852;BME280;48553;50.766;2.900;2023-04-04T06:52:59;102167.97;;;5.00;70.02
60852;BME280;48553;50.766;2.900;2023-04-04T06:56:00;102167.19;;;5.05;70.20
60852;BME280;48553;50.766;2.900;2023-04-04T06:59:01;102157.97;;;5.11;70.35
60852;BME280;48553;50.766;2.900;2023-04-04T07:02:01;102167.22;;;5.15;70.36
60852;BME280;48553;50.766;2.900;2023-04-04T07:05:02;102169.47;;;5.23;70.21
60852;BME280;48553;50.766;2.900;2023-04-04T07:08:03;102174.91;;;5.28;70.28
60852;BME280;48553;50.766;2.900;2023-04-04T07:11:04;102180.91;;;5.35;70.13
60852;BME280;48553;50.766;2.900;2023-04-04T07:14:05;102177.97;;;5.42;69.85
60852;BME280;48553;50.766;2.900;2023-04-04T07:17:05;102172.28;;;5.49;69.76
60852;BME280;48553;50.766;2.900;2023-04-04T07:20:07;102170.13;;;5.56;69.78
60852;BME280;48553;50.766;2.900;2023-04-04T07:23:08;102162.28;;;5.64;69.60
60852;BME280;48553;50.766;2.900;2023-04-04T07:26:10;102167.47;;;5.71;69.58
60852;BME280;48553;50.766;2.900;2023-04-04T07:29:10;102163.13;;;5.80;69.47
60852;BME280;48553;50.766;2.900;2023-04-04T07:32:11;102169.13;;;5.88;69.23
60852;BME280;48553;50.766;2.900;2023-04-04T07:35:11;102165.66;;;5.97;69.21
60852;BME280;48553;50.766;2.900;2023-04-04T07:38:12;102165.91;;;6.06;69.01
60852;BME280;48553;50.766;2.900;2023-04-04T07:41:12;102165.41;;;6.14;68.91
60852;BME280;48553;50.766;2.900;2023-04-04T07:44:12;102159.13;;;6.24;68.56
60852;BME280;48553;50.766;2.900;2023-04-04T07:47:13;102155.88;;;6.32;68.70
60852;BME280;48553;50.766;2.900;2023-04-04T07:50:14;102158.31;;;6.44;68.60
60852;BME280;48553;50.766;2.900;2023-04-04T07:53:15;102149.88;;;6.56;68.58
60852;BME280;48553;50.766;2.900;2023-04-04T07:56:16;102155.88;;;6.68;68.39
60852;BME280;48553;50.766;2.900;2023-04-04T07:59:16;102156.66;;;6.79;68.78
60852;BME280;48553;50.766;2.900;2023-04-04T08:02:17;102146.84;;;6.93;69.01
60852;BME280;48553;50.766;2.900;2023-04-04T08:05:17;102150.31;;;7.04;68.75
60852;BME280;48553;50.766;2.900;2023-04-04T08:08:17;102159.28;;;7.15;68.74
60852;BME280;48553;50.766;2.900;2023-04-04T08:11:18;102157.34;;;7.25;68.84
60852;BME280;48553;50.766;2.900;2023-04-04T08:14:18;102148.28;;;7.40;69.09
60852;BME280;48553;50.766;2.900;2023-04-04T08:17:19;102153.44;;;7.52;68.74
60852;BME280;48553;50.766;2.900;2023-04-04T08:20:20;102159.09;;;7.66;68.67
60852;BME280;48553;50.766;2.900;2023-04-04T08:23:20;102147.78;;;7.83;69.05
60852;BME280;48553;50.766;2.900;2023-04-04T08:26:21;102152.91;;;7.94;68.32
60852;BME280;48553;50.766;2.900;2023-04-04T08:29:21;102144.06;;;8.08;68.29
60852;BME280;48553;50.766;2.900;2023-04-04T08:32:22;102143.38;;;8.26;67.84
60852;BME280;48553;50.766;2.900;2023-04-04T08:35:22;102139.78;;;8.36;68.17
60852;BME280;48553;50.766;2.900;2023-04-04T08:38:23;102144.84;;;8.53;67.68
60852;BME280;48553;50.766;2.900;2023-04-04T08:41:23;102146.09;;;8.66;67.48
60852;BME280;48553;50.766;2.900;2023-04-04T08:44:24;102149.50;;;8.76;68.36
60852;BME280;48553;50.766;2.900;2023-04-04T08:47:27;102156.03;;;8.81;68.14
60852;BME280;48553;50.766;2.900;2023-04-04T08:50:29;102152.56;;;8.99;68.02
60852;BME280;48553;50.766;2.900;2023-04-04T08:53:31;102157.66;;;9.11;67.91
60852;BME280;48553;50.766;2.900;2023-04-04T08:56:34;102150.13;;;9.22;67.76
60852;BME280;48553;50.766;2.900;2023-04-04T08:59:35;102155.47;;;9.32;67.78
60852;BME280;48553;50.766;2.900;2023-04-04T09:02:52;102155.94;;;9.39;67.90
60852;BME280;48553;50.766;2.900;2023-04-04T09:05:54;102155.75;;;9.54;68.00
60852;BME280;48553;50.766;2.900;2023-04-04T09:08:56;102151.75;;;9.66;67.44
60852;BME280;48553;50.766;2.900;2023-04-04T09:12:02;102156.50;;;9.79;67.24
60852;BME280;48553;50.766;2.900;2023-04-04T09:15:02;102157.25;;;9.85;67.15
60852;BME280;48553;50.766;2.900;2023-04-04T09:18:03;102152.72;;;9.94;66.91
60852;BME280;48553;50.766;2.900;2023-04-04T09:21:11;102150.66;;;10.04;67.07
60852;BME280;48553;50.766;2.900;2023-04-04T09:24:11;102151.00;;;10.17;66.45
60852;BME280;48553;50.766;2.900;2023-04-04T09:27:14;102146.72;;;10.30;66.73
60852;BME280;48553;50.766;2.900;2023-04-04T09:30:15;102157.00;;;10.38;66.56
60852;BME280;48553;50.766;2.900;2023-04-04T09:33:17;102151.34;;;10.48;66.55
60852;BME280;48553;50.766;2.900;2023-04-04T09:36:18;102159.09;;;10.60;66.15
60852;BME280;48553;50.766;2.900;2023-04-04T09:39:18;102149.88;;;10.70;66.21
60852;BME280;48553;50.766;2.900;2023-04-04T09:42:20;102149.28;;;10.86;65.94
60852;BME280;48553;50.766;2.900;2023-04-04T09:45:22;102149.91;;;10.97;65.65
60852;BME280;48553;50.766;2.900;2023-04-04T09:48:32;102150.03;;;11.06;65.38
60852;BME280;48553;50.766;2.900;2023-04-04T09:51:33;102143.69;;;11.19;64.93
60852;BME280;48553;50.766;2.900;2023-04-04T09:54:37;102144.19;;;11.35;64.79
60852;BME280;48553;50.766;2.900;2023-04-04T09:57:40;102148.56;;;11.50;64.48
60852;BME280;48553;50.766;2.900;2023-04-04T10:00:41;102143.13;;;11.73;64.64
60852;BME280;48553;50.766;2.900;2023-04-04T10:03:51;102139.53;;;11.86;64.48
60852;BME280;48553;50.766;2.900;2023-04-04T10:06:53;102144.19;;;11.99;64.16
60852;BME280;48553;50.766;2.900;2023-04-04T10:09:55;102144.16;;;12.13;63.78
60852;BME280;48553;50.766;2.900;2023-04-04T10:12:56;102142.78;;;12.24;63.15
60852;BME280;48553;50.766;2.900;2023-04-04T10:15:58;102143.94;;;12.32;63.38
60852;BME280;48553;50.766;2.900;2023-04-04T10:19:00;102138.81;;;12.39;63.04
60852;BME280;48553;50.766;2.900;2023-04-04T10:22:01;102143.22;;;12.49;62.67
60852;BME280;48553;50.766;2.900;2023-04-04T10:25:03;102144.13;;;12.58;62.52
60852;BME280;48553;50.766;2.900;2023-04-04T10:28:04;102141.53;;;12.62;62.23
60852;BME280;48553;50.766;2.900;2023-04-04T10:31:10;102138.53;;;12.72;61.39
60852;BME280;48553;50.766;2.900;2023-04-04T10:34:23;102135.22;;;12.92;61.66
60852;BME280;48553;50.766;2.900;2023-04-04T10:37:25;102138.31;;;13.00;61.31
60852;BME280;48553;50.766;2.900;2023-04-04T10:40:30;102130.88;;;13.00;61.26
60852;BME280;48553;50.766;2.900;2023-04-04T10:43:34;102130.75;;;13.14;61.31
60852;BME280;48553;50.766;2.900;2023-04-04T10:46:40;102142.94;;;13.22;61.09
60852;BME280;48553;50.766;2.900;2023-04-04T10:49:45;102145.25;;;13.37;60.83
60852;BME280;48553;50.766;2.900;2023-04-04T10:52:46;102138.31;;;13.48;60.80
60852;BME280;48553;50.766;2.900;2023-04-04T10:55:47;102134.78;;;13.56;60.99
60852;BME280;48553;50.766;2.900;2023-04-04T10:58:48;102132.53;;;13.67;60.52
60852;BME280;48553;50.766;2.900;2023-04-04T11:01:58;102115.97;;;13.76;60.19
60852;BME280;48553;50.766;2.900;2023-04-04T11:05:09;102130.09;;;13.83;61.32
60852;BME280;48553;50.766;2.900;2023-04-04T11:08:14;102124.75;;;13.87;60.51
60852;BME280;48553;50.766;2.900;2023-04-04T11:11:16;102117.09;;;14.01;60.25
60852;BME280;48553;50.766;2.900;2023-04-04T11:14:27;102105.13;;;14.06;60.88
60852;BME280;48553;50.766;2.900;2023-04-04T11:20:48;102109.78;;;14.23;60.47
60852;BME280;48553;50.766;2.900;2023-04-04T11:26:48;102101.00;;;14.38;59.96
60852;BME280;48553;50.766;2.900;2023-04-04T11:29:50;102096.91;;;14.44;59.91
60852;BME280;48553;50.766;2.900;2023-04-04T11:32:56;102090.25;;;14.54;60.20
60852;BME280;48553;50.766;2.900;2023-04-04T11:35:57;102080.53;;;14.56;60.12
60852;BME280;48553;50.766;2.900;2023-04-04T11:38:59;102071.88;;;14.67;59.99
60852;BME280;48553;50.766;2.900;2023-04-04T11:45:04;102065.31;;;14.80;58.96
60852;BME280;48553;50.766;2.900;2023-04-04T11:48:07;102064.16;;;14.90;58.63
60852;BME280;48553;50.766;2.900;2023-04-04T11:51:08;102064.25;;;15.02;58.40
60852;BME280;48553;50.766;2.900;2023-04-04T11:54:15;102059.03;;;15.00;58.36
60852;BME280;48553;50.766;2.900;2023-04-04T11:57:19;102059.31;;;15.08;57.70
60852;BME280;48553;50.766;2.900;2023-04-04T12:00:33;102052.63;;;15.17;57.99
60852;BME280;48553;50.766;2.900;2023-04-04T12:03:36;102043.88;;;15.15;58.19
60852;BME280;48553;50.766;2.900;2023-04-04T12:06:37;102045.88;;;15.27;57.17
60852;BME280;48553;50.766;2.900;2023-04-04T12:09:38;102036.59;;;15.32;57.70
60852;BME280;48553;50.766;2.900;2023-04-04T12:12:39;102038.59;;;15.43;57.46
60852;BME280;48553;50.766;2.900;2023-04-04T12:15:41;102044.50;;;15.42;57.39
60852;BME280;48553;50.766;2.900;2023-04-04T12:18:43;102039.41;;;15.65;57.06
60852;BME280;48553;50.766;2.900;2023-04-04T12:21:48;102034.09;;;15.81;55.18
60852;BME280;48553;50.766;2.900;2023-04-04T12:24:52;102023.59;;;15.74;56.56
60852;BME280;48553;50.766;2.900;2023-04-04T12:27:52;102020.81;;;15.74;56.34
60852;BME280;48553;50.766;2.900;2023-04-04T12:30:53;102022.44;;;15.75;57.22
60852;BME280;48553;50.766;2.900;2023-04-04T12:33:54;102015.56;;;15.81;56.77
60852;BME280;48553;50.766;2.900;2023-04-04T12:36:56;102002.06;;;15.80;57.45
60852;BME280;48553;50.766;2.900;2023-04-04T12:39:57;102015.22;;;15.83;56.50
60852;BME280;48553;50.766;2.900;2023-04-04T12:43:06;102008.91;;;15.95;56.11
60852;BME280;48553;50.766;2.900;2023-04-04T12:46:06;102000.81;;;15.90;56.95
60852;BME280;48553;50.766;2.900;2023-04-04T12:49:10;102009.47;;;15.88;56.89
60852;BME280;48553;50.766;2.900;2023-04-04T12:55:22;102002.34;;;15.99;55.72
60852;BME280;48553;50.766;2.900;2023-04-04T12:58:23;102002.69;;;15.98;56.16
60852;BME280;48553;50.766;2.900;2023-04-04T13:01:28;101996.47;;;16.01;56.00
60852;BME280;48553;50.766;2.900;2023-04-04T13:04:30;102000.63;;;16.07;56.04
60852;BME280;48553;50.766;2.900;2023-04-04T13:07:36;101996.94;;;16.03;56.04
60852;BME280;48553;50.766;2.900;2023-04-04T13:14:02;101983.94;;;16.16;54.78
60852;BME280;48553;50.766;2.900;2023-04-04T13:17:06;101987.75;;;16.23;54.99
60852;BME280;48553;50.766;2.900;2023-04-04T13:20:11;101987.97;;;16.18;54.97
60852;BME280;48553;50.766;2.900;2023-04-04T13:23:12;101983.00;;;16.12;55.71
60852;BME280;48553;50.766;2.900;2023-04-04T13:26:12;101969.53;;;16.10;55.49
60852;BME280;48553;50.766;2.900;2023-04-04T13:29:13;101958.81;;;16.21;54.28
60852;BME280;48553;50.766;2.900;2023-04-04T13:32:13;101973.13;;;16.23;54.69
60852;BME280;48553;50.766;2.900;2023-04-04T13:35:14;101962.38;;;16.21;54.72
60852;BME280;48553;50.766;2.900;2023-04-04T13:38:15;101953.53;;;16.16;55.14
60852;BME280;48553;50.766;2.900;2023-04-04T13:41:15;101944.66;;;16.22;54.74
60852;BME280;48553;50.766;2.900;2023-04-04T13:44:16;101948.22;;;16.23;54.29
60852;BME280;48553;50.766;2.900;2023-04-04T13:47:16;101944.66;;;16.22;55.06
60852;BME280;48553;50.766;2.900;2023-04-04T13:50:17;101933.25;;;16.24;54.79
60852;BME280;48553;50.766;2.900;2023-04-04T13:53:17;101934.38;;;16.23;55.10
60852;BME280;48553;50.766;2.900;2023-04-04T13:56:18;101941.41;;;16.33;53.85
60852;BME280;48553;50.766;2.900;2023-04-04T13:59:18;101938.53;;;16.29;53.53
60852;BME280;48553;50.766;2.900;2023-04-04T14:02:18;101939.34;;;16.29;54.42
60852;BME280;48553;50.766;2.900;2023-04-04T14:05:19;101928.19;;;16.26;54.53
60852;BME280;48553;50.766;2.900;2023-04-04T14:08:19;101931.84;;;16.18;55.24
60852;BME280;48553;50.766;2.900;2023-04-04T14:11:20;101933.00;;;16.17;54.73
60852;BME280;48553;50.766;2.900;2023-04-04T14:14:21;101930.94;;;16.14;55.13
60852;BME280;48553;50.766;2.900;2023-04-04T14:17:21;101928.97;;;16.14;54.87
60852;BME280;48553;50.766;2.900;2023-04-04T14:20:22;101913.53;;;16.13;53.93
60852;BME280;48553;50.766;2.900;2023-04-04T14:23:22;101912.97;;;16.20;54.33
60852;BME280;48553;50.766;2.900;2023-04-04T14:26:23;101904.06;;;16.14;54.85
60852;BME280;48553;50.766;2.900;2023-04-04T14:29:23;101904.63;;;16.07;54.85
60852;BME280;48553;50.766;2.900;2023-04-04T14:32:23;101902.81;;;15.99;55.33
60852;BME280;48553;50.766;2.900;2023-04-04T14:35:25;101899.44;;;15.94;54.55
60852;BME280;48553;50.766;2.900;2023-04-04T14:38:25;101896.34;;;15.95;54.43
60852;BME280;48553;50.766;2.900;2023-04-04T14:41:25;101900.84;;;15.88;54.61
60852;BME280;48553;50.766;2.900;2023-04-04T14:44:26;101892.97;;;15.90;54.84
60852;BME280;48553;50.766;2.900;2023-04-04T14:47:27;101894.28;;;15.92;54.31
60852;BME280;48553;50.766;2.900;2023-04-04T14:50:27;101897.03;;;15.92;54.56
60852;BME280;48553;50.766;2.900;2023-04-04T14:53:28;101885.75;;;15.97;54.05
60852;BME280;48553;50.766;2.900;2023-04-04T14:56:29;101874.78;;;15.89;55.91
60852;BME280;48553;50.766;2.900;2023-04-04T14:59:30;101879.63;;;15.79;56.07
60852;BME280;48553;50.766;2.900;2023-04-04T15:02:32;101878.69;;;15.75;54.61
60852;BME280;48553;50.766;2.900;2023-04-04T15:05:32;101878.22;;;15.73;55.66
60852;BME280;48553;50.766;2.900;2023-04-04T15:08:33;101873.22;;;15.66;55.67
60852;BME280;48553;50.766;2.900;2023-04-04T15:11:33;101867.59;;;15.63;55.36
60852;BME280;48553;50.766;2.900;2023-04-04T15:14:34;101867.94;;;15.61;55.50
60852;BME280;48553;50.766;2.900;2023-04-04T15:17:35;101869.84;;;15.49;55.88
60852;BME280;48553;50.766;2.900;2023-04-04T15:20:36;101873.63;;;15.44;55.59
60852;BME280;48553;50.766;2.900;2023-04-04T15:23:39;101868.34;;;15.39;55.50
60852;BME280;48553;50.766;2.900;2023-04-04T15:26:40;101872.81;;;15.31;54.84
60852;BME280;48553;50.766;2.900;2023-04-04T15:29:40;101864.63;;;15.22;54.49
60852;BME280;48553;50.766;2.900;2023-04-04T15:32:41;101868.72;;;15.16;54.45
60852;BME280;48553;50.766;2.900;2023-04-04T15:35:41;101874.59;;;15.15;55.56
60852;BME280;48553;50.766;2.900;2023-04-04T15:38:42;101885.97;;;15.13;55.13
60852;BME280;48553;50.766;2.900;2023-04-04T15:41:42;101878.72;;;15.09;54.67
60852;BME280;48553;50.766;2.900;2023-04-04T15:44:43;101876.97;;;15.04;55.99
60852;BME280;48553;50.766;2.900;2023-04-04T15:47:43;101868.44;;;14.97;55.73
60852;BME280;48553;50.766;2.900;2023-04-04T15:50:44;101860.00;;;14.93;55.11
60852;BME280;48553;50.766;2.900;2023-04-04T15:53:44;101856.50;;;14.84;55.53
60852;BME280;48553;50.766;2.900;2023-04-04T15:56:45;101847.66;;;14.78;55.72
60852;BME280;48553;50.766;2.900;2023-04-04T15:59:47;101846.88;;;14.69;55.68
60852;BME280;48553;50.766;2.900;2023-04-04T16:02:48;101850.53;;;14.61;56.37
60852;BME280;48553;50.766;2.900;2023-04-04T16:05:50;101842.09;;;14.57;56.16
60852;BME280;48553;50.766;2.900;2023-04-04T16:08:51;101845.03;;;14.52;56.18
60852;BME280;48553;50.766;2.900;2023-04-04T16:11:53;101840.91;;;14.37;57.04
60852;BME280;48553;50.766;2.900;2023-04-04T16:14:54;101845.84;;;14.32;57.08